»·PEaware :: AAL1097 KSFO-KLAX

AAL1097 :: KSFO-KLAX

FLIGHT INFORMATION

Flight Status: Arrived
Operator:
American Airlines
More flights by this operator :: More flights under this callsign
Pilot: Adam A. (5112)
Aircraft: BOEING 767-300
(B763)
More flights by this aircraft type
Origin: KSFO San Francisco Intl
United States
Destination: KLAX Los Angeles Intl
United States
More flights between these airports :: More routes between these airports
Route: +PORTE7 AVE SADDE6
File this flight plan on PilotEdge
Remarks:
Altitude:
(Current/Filed)
25,000ft
Speed:
(Current/Filed)
400kts
Departed: 01-Apr-16 04:37 PM
Arrived: 01-Apr-16 05:34 PM
Distance/Time
Traveled:
293nm/0:57
Distance/Time
To Go:
Arrived

Flight Plot

Page will automatically refresh every two minutes.


Map Options




Map Legend


Flown Route
Filed Route
Departure Airport
Arrival Airport
Navaid (VOR, NDB)
Fix

Horizontal Profiles

Position Reports

Time Latitude Longitude Heading Altitude Ground
Speed
01-Apr-16 15:58 37.617772 -122.382922 135 25ft 0kts
01-Apr-16 15:59 37.617772 -122.382922 135 25ft 0kts
01-Apr-16 16:00 37.617772 -122.382922 135 25ft 0kts
01-Apr-16 16:01 37.617772 -122.382922 135 25ft 0kts
01-Apr-16 16:02 37.617772 -122.382922 135 25ft 0kts
01-Apr-16 16:03 37.617772 -122.382922 135 25ft 0kts
01-Apr-16 16:04 37.617772 -122.382922 135 24ft 0kts
01-Apr-16 16:05 37.617772 -122.382922 135 24ft 0kts
01-Apr-16 16:06 37.617772 -122.382922 135 24ft 0kts
01-Apr-16 16:07 37.617772 -122.382922 135 24ft 0kts
01-Apr-16 16:08 37.617772 -122.382922 135 24ft 0kts
01-Apr-16 16:09 37.617772 -122.382922 135 24ft 0kts
01-Apr-16 16:10 37.617772 -122.382922 135 24ft 0kts
01-Apr-16 16:11 37.617772 -122.382922 135 24ft 0kts
01-Apr-16 16:12 37.617772 -122.382922 135 24ft 0kts
01-Apr-16 16:13 37.617772 -122.382922 135 24ft 0kts
01-Apr-16 16:14 37.617772 -122.382922 135 24ft 0kts
01-Apr-16 16:15 37.617772 -122.382922 135 24ft 0kts
01-Apr-16 16:16 37.617772 -122.382922 135 24ft 0kts
01-Apr-16 16:17 37.617903 -122.383086 135 24ft 2kts
01-Apr-16 16:18 37.618061 -122.383598 90 24ft 0kts
01-Apr-16 16:19 37.618113 -122.383384 61 24ft 0kts
01-Apr-16 16:20 37.618257 -122.383058 59 24ft 0kts
01-Apr-16 16:21 37.618638 -122.382563 21 24ft 5kts
01-Apr-16 16:22 37.618163 -122.379636 156 24ft 14kts
01-Apr-16 16:23 37.613533 -122.381673 210 24ft 25kts
01-Apr-16 16:24 37.609303 -122.384714 199 24ft 12kts
01-Apr-16 16:25 37.608866 -122.384637 130 24ft 0kts
01-Apr-16 16:26 37.608551 -122.384033 118 24ft 0kts
01-Apr-16 16:27 37.608551 -122.384033 118 24ft 0kts
01-Apr-16 16:28 37.608245 -122.383060 87 24ft 18kts
01-Apr-16 16:29 37.629934 -122.369102 11 1064ft 192kts
01-Apr-16 16:30 37.685958 -122.385654 296 3451ft 245kts
01-Apr-16 16:31 37.654281 -122.452130 212 7283ft 268kts
01-Apr-16 16:32 37.591936 -122.508193 214 10705ft 300kts
01-Apr-16 16:33 37.504823 -122.502615 142 13599ft 355kts
01-Apr-16 16:34 37.450561 -122.398757 120 17120ft 372kts
01-Apr-16 16:35 37.395856 -122.288692 124 19009ft 383kts
01-Apr-16 16:36 37.324411 -122.188659 132 19233ft 387kts
01-Apr-16 16:37 37.251885 -122.089943 132 19226ft 387kts
01-Apr-16 16:38 37.179041 -121.991175 132 19222ft 387kts
01-Apr-16 16:39 37.104540 -121.890510 132 21933ft 402kts
01-Apr-16 16:40 37.035119 -121.796130 132 24414ft 416kts
01-Apr-16 16:41 36.955786 -121.689491 132 25217ft 422kts
01-Apr-16 16:42 36.875919 -121.582565 132 25213ft 423kts
01-Apr-16 16:43 36.795906 -121.475799 132 25205ft 424kts
01-Apr-16 16:44 36.715185 -121.368451 132 25788ft 430kts
01-Apr-16 16:45 36.632727 -121.259151 131 28117ft 444kts
01-Apr-16 16:46 36.546715 -121.145523 131 29978ft 463kts
01-Apr-16 16:47 36.457398 -121.027975 131 31848ft 476kts
01-Apr-16 16:48 36.368117 -120.910940 131 33827ft 478kts
01-Apr-16 16:49 36.278966 -120.793489 131 35149ft 473kts
01-Apr-16 16:50 36.188774 -120.675910 132 35164ft 474kts
01-Apr-16 16:51 36.098355 -120.558580 132 35164ft 474kts
01-Apr-16 16:52 36.007611 -120.441258 132 35164ft 474kts
01-Apr-16 16:53 35.916377 -120.323722 132 35164ft 474kts
01-Apr-16 16:54 35.825451 -120.206997 132 35164ft 474kts
01-Apr-16 16:55 35.733504 -120.089369 132 35166ft 479kts
01-Apr-16 16:56 35.638835 -119.973668 141 35160ft 481kts
01-Apr-16 16:57 35.531408 -119.879008 143 35159ft 481kts
01-Apr-16 16:58 35.424862 -119.786387 144 35149ft 481kts
01-Apr-16 16:59 35.318697 -119.695122 144 33731ft 458kts
01-Apr-16 17:00 35.215947 -119.607112 144 32161ft 455kts
01-Apr-16 17:01 35.112621 -119.518881 144 30178ft 458kts
01-Apr-16 17:02 35.010026 -119.431557 144 28058ft 443kts
01-Apr-16 17:03 34.910939 -119.347468 143 26060ft 426kts
01-Apr-16 17:04 34.815447 -119.266660 143 24225ft 412kts
01-Apr-16 17:05 34.721942 -119.187754 143 24154ft 409kts
01-Apr-16 17:06 34.628650 -119.109256 143 24150ft 409kts
01-Apr-16 17:07 34.536312 -119.031775 143 23532ft 415kts
01-Apr-16 17:08 34.444768 -118.955198 143 21445ft 384kts
01-Apr-16 17:09 34.361504 -118.886475 149 16039ft 367kts
01-Apr-16 17:10 34.266694 -118.848112 160 14249ft 357kts
01-Apr-16 17:11 34.172805 -118.812502 152 12305ft 347kts
01-Apr-16 17:12 34.124827 -118.723556 104 11813ft 330kts
01-Apr-16 17:13 34.085911 -118.623167 115 9784ft 301kts
01-Apr-16 17:14 34.050718 -118.545064 116 8729ft 261kts
01-Apr-16 17:15 34.016840 -118.468380 121 7842ft 261kts
01-Apr-16 17:16 33.961559 -118.412317 106 7072ft 283kts
01-Apr-16 17:17 33.983839 -118.331128 41 6947ft 266kts
01-Apr-16 17:18 34.039759 -118.274306 42 5628ft 261kts
01-Apr-16 17:19 34.061891 -118.197402 81 4461ft 241kts
01-Apr-16 17:20 34.034082 -118.143136 171 3602ft 212kts
01-Apr-16 17:21 33.979926 -118.155832 221 3622ft 214kts
01-Apr-16 17:22 33.953788 -118.216248 263 3041ft 208kts
01-Apr-16 17:23 33.947558 -118.283087 261 1840ft 186kts
01-Apr-16 17:24 33.942809 -118.329872 261 989ft 146kts
01-Apr-16 17:25 33.938323 -118.373613 261 312ft 127kts
01-Apr-16 17:26 33.935874 -118.402418 286 137ft 32kts
01-Apr-16 17:27 33.936261 -118.404649 261 137ft 4kts
01-Apr-16 17:28 33.937257 -118.409051 352 137ft 18kts
01-Apr-16 17:29 33.938326 -118.412193 71 137ft 17kts
01-Apr-16 17:30 33.942425 -118.411380 352 137ft 27kts
01-Apr-16 17:31 33.947393 -118.410226 85 137ft 18kts
01-Apr-16 17:32 33.946995 -118.408364 143 137ft 0kts

Navigation Log

Ident Type
Flight plan parsing failed, navigation log unavailable